Somersworth, New Hampshire
Current Conditions -  °F | °C
As of 1:51 AM on Friday 28 Nov 2014 (Local Time) from KDAW Reporting Station
Light Snow Light Snow  
Wind Chill: 27°   Ceiling: 2000
Heat Index: 27°   Visibility: 2mi
Dew Point: 25°   Wind: 3mph
Humidity: 92%   Direction: 20°NNE
Pressure: 30"   Gusts: NA
Location:  43.26°N, 70.86°W
Report Text: KDAW 280651Z AUTO 02003KT 2SM -SN BR FEW009 BKN020 OVC029 M03/M04 A3000 RMK AO2 SLP159 P0000 T10281039
Loading
Personal Weather Stations






























Interactive Weather Map New forecast layout! Learn more

10-Day Weather Forecast

Advertisements
Track Severe Weather on mobile